createdAt,value
2017-04-19T00:00:56.264Z,18.90
2017-04-19T00:02:00.456Z,18.70
2017-04-19T00:03:04.437Z,18.60
2017-04-19T00:04:08.309Z,18.50
2017-04-19T00:05:12.979Z,18.50
2017-04-19T00:06:17.011Z,18.40
2017-04-19T00:07:20.832Z,18.30
2017-04-19T00:08:24.774Z,18.20
2017-04-19T00:09:28.820Z,18.00
2017-04-19T00:10:32.951Z,17.80
2017-04-19T00:11:37.060Z,17.80
2017-04-19T00:12:40.865Z,17.70
2017-04-19T00:13:44.766Z,17.80
2017-04-19T00:14:48.432Z,17.80
2017-04-19T00:15:52.148Z,17.80
2017-04-19T00:16:55.738Z,17.70
2017-04-19T00:17:59.599Z,17.80
2017-04-19T00:19:03.283Z,17.80
2017-04-19T00:20:07.315Z,17.80
2017-04-19T00:21:11.002Z,17.70
2017-04-19T00:22:15.314Z,17.70
2017-04-19T00:23:19.331Z,17.70
2017-04-19T00:24:23.051Z,17.70
2017-04-19T00:25:26.631Z,17.70
2017-04-19T00:26:30.691Z,17.80
2017-04-19T00:27:34.725Z,17.80
2017-04-19T00:28:38.345Z,17.80
2017-04-19T00:29:42.436Z,17.70
2017-04-19T00:30:46.287Z,17.70
2017-04-19T00:31:49.930Z,17.50
2017-04-19T00:32:53.859Z,17.50
2017-04-19T00:33:57.589Z,17.30
2017-04-19T00:35:01.713Z,17.30
2017-04-19T00:36:04.952Z,17.40
2017-04-19T00:37:08.181Z,17.50
2017-04-19T00:38:11.451Z,17.50
2017-04-19T00:39:14.630Z,17.50
2017-04-19T00:40:17.835Z,17.50
2017-04-19T00:41:21.116Z,17.50
2017-04-19T00:42:25.685Z,17.50
2017-04-19T00:43:30.596Z,17.50
2017-04-19T00:44:34.335Z,17.50
2017-04-19T00:45:38.318Z,17.40
2017-04-19T00:46:42.334Z,17.50
2017-04-19T00:47:47.109Z,17.50
2017-04-19T00:51:51.875Z,17.50
2017-04-19T00:52:55.730Z,17.50
2017-04-19T00:53:59.597Z,17.60
2017-04-19T00:55:03.239Z,17.60
2017-04-19T00:56:07.138Z,17.50
2017-04-19T00:57:11.205Z,17.40
2017-04-19T00:58:18.234Z,17.30
2017-04-19T00:59:22.014Z,17.30
2017-04-19T01:00:26.533Z,17.20
2017-04-19T01:01:31.264Z,17.30
2017-04-19T01:02:35.419Z,17.40
2017-04-19T01:03:38.992Z,17.50
2017-04-19T01:04:43.100Z,17.30
2017-04-19T01:05:46.986Z,17.30
2017-04-19T01:06:50.844Z,17.30
2017-04-19T01:07:54.727Z,17.40
2017-04-19T01:08:58.815Z,17.40
2017-04-19T01:10:02.818Z,17.40
2017-04-19T01:11:06.937Z,17.40
2017-04-19T01:12:11.084Z,17.30
2017-04-19T01:13:15.225Z,17.20
2017-04-19T01:14:19.378Z,17.20
2017-04-19T01:15:23.334Z,17.20
2017-04-19T01:16:27.164Z,17.30
2017-04-19T01:17:30.915Z,17.30
2017-04-19T01:18:34.972Z,17.20
2017-04-19T01:19:38.916Z,17.10
2017-04-19T01:20:42.842Z,17.10
2017-04-19T01:21:47.354Z,16.90
2017-04-19T01:22:51.163Z,16.90
2017-04-19T01:23:55.179Z,16.90
2017-04-19T01:24:58.815Z,17.00
2017-04-19T01:26:02.579Z,17.00
2017-04-19T01:27:06.487Z,17.00
2017-04-19T01:28:10.961Z,17.00
2017-04-19T01:29:15.053Z,17.10
2017-04-19T01:30:18.641Z,17.10
2017-04-19T01:31:22.626Z,17.10
2017-04-19T01:32:26.385Z,17.10
2017-04-19T01:33:30.555Z,17.10
2017-04-19T01:34:34.744Z,17.10
2017-04-19T01:35:39.819Z,17.10
2017-04-19T01:36:43.585Z,17.10
2017-04-19T01:37:47.291Z,17.10
2017-04-19T01:38:51.167Z,17.10
2017-04-19T01:39:55.205Z,17.10
2017-04-19T01:41:00.400Z,17.10
2017-04-19T01:42:04.615Z,17.20
2017-04-19T01:43:09.053Z,17.10
2017-04-19T01:44:13.099Z,17.10
2017-04-19T01:45:17.325Z,17.10
2017-04-19T01:46:21.134Z,17.20
2017-04-19T01:47:24.799Z,17.10
2017-04-19T01:48:28.633Z,17.20
2017-04-19T01:49:32.530Z,17.20
2017-04-19T01:50:36.617Z,17.30
2017-04-19T01:51:40.417Z,17.20
2017-04-19T01:52:44.006Z,17.20
2017-04-19T01:53:47.900Z,17.20
2017-04-19T01:54:51.679Z,17.30
2017-04-19T01:55:55.771Z,17.30
2017-04-19T01:56:59.567Z,17.30
2017-04-19T01:58:04.344Z,17.30
2017-04-19T01:59:08.131Z,17.30
2017-04-19T02:00:12.343Z,17.30
2017-04-19T02:01:16.310Z,17.30
2017-04-19T02:02:20.398Z,17.20
2017-04-19T02:03:24.623Z,17.30
2017-04-19T02:04:28.386Z,17.20
2017-04-19T02:05:36.210Z,17.20
2017-04-19T02:06:40.216Z,17.20
2017-04-19T02:07:46.276Z,17.20
2017-04-19T02:08:50.247Z,17.20
2017-04-19T02:09:54.575Z,17.10
2017-04-19T02:10:58.561Z,17.10
2017-04-19T02:12:03.701Z,17.10
2017-04-19T02:13:07.630Z,17.00
2017-04-19T02:14:11.876Z,16.90
2017-04-19T02:15:15.846Z,16.70
2017-04-19T02:16:19.930Z,16.60
2017-04-19T02:17:24.028Z,16.50
2017-04-19T02:18:27.790Z,16.40
2017-04-19T02:19:31.501Z,16.30
2017-04-19T02:20:35.591Z,16.10
2017-04-19T02:21:39.112Z,16.00
2017-04-19T02:22:43.143Z,15.80
2017-04-19T02:23:47.255Z,15.80
2017-04-19T02:24:50.814Z,15.90
2017-04-19T02:25:54.974Z,16.00
2017-04-19T02:26:58.545Z,15.90
2017-04-19T02:28:02.804Z,15.90
2017-04-19T02:29:06.695Z,15.90
2017-04-19T02:30:10.467Z,15.80
2017-04-19T02:31:14.147Z,15.80
2017-04-19T02:32:17.935Z,15.80
2017-04-19T02:33:21.965Z,15.70
2017-04-19T02:34:26.263Z,15.70
2017-04-19T02:35:30.129Z,15.70
2017-04-19T02:36:35.263Z,15.70
2017-04-19T02:37:39.316Z,15.80
2017-04-19T02:38:43.426Z,15.60
2017-04-19T02:39:47.235Z,15.60
2017-04-19T02:40:51.286Z,15.50
2017-04-19T02:41:55.197Z,15.50
2017-04-19T02:42:59.124Z,15.50
2017-04-19T02:44:03.346Z,15.50
2017-04-19T02:45:07.525Z,15.50
2017-04-19T02:46:11.370Z,15.50
2017-04-19T02:47:15.344Z,15.50
2017-04-19T02:48:19.221Z,15.60
2017-04-19T02:49:23.489Z,15.60
2017-04-19T02:50:27.476Z,15.60
2017-04-19T02:51:31.201Z,15.60
2017-04-19T02:52:34.911Z,15.60
2017-04-19T02:53:39.525Z,15.60
2017-04-19T02:54:44.383Z,15.70
2017-04-19T02:55:49.418Z,15.70
2017-04-19T02:56:53.183Z,15.60
2017-04-19T02:57:57.323Z,15.60
2017-04-19T02:59:01.230Z,15.60
2017-04-19T03:00:05.648Z,15.60
2017-04-19T03:01:09.485Z,15.60
2017-04-19T03:02:13.348Z,15.50
2017-04-19T03:03:17.284Z,15.50
2017-04-19T03:04:20.976Z,15.50
2017-04-19T03:05:25.562Z,15.40
2017-04-19T03:06:29.453Z,15.40
2017-04-19T03:07:33.234Z,15.50
2017-04-19T03:08:36.829Z,15.50
2017-04-19T03:09:40.624Z,15.50
2017-04-19T03:10:44.506Z,15.50
2017-04-19T03:11:48.291Z,15.40
2017-04-19T03:14:05.529Z,15.00
2017-04-19T03:15:09.286Z,14.90
2017-04-19T03:16:13.048Z,14.80
2017-04-19T03:17:16.855Z,14.70
2017-04-19T03:18:20.932Z,14.70
2017-04-19T03:19:24.742Z,14.70
2017-04-19T03:20:28.299Z,14.60
2017-04-19T03:21:32.416Z,14.60
2017-04-19T03:22:36.483Z,14.60
2017-04-19T03:23:40.245Z,14.50
2017-04-19T03:24:44.152Z,14.40
2017-04-19T03:25:47.704Z,14.20
2017-04-19T03:26:51.779Z,14.20
2017-04-19T03:27:55.875Z,14.10
2017-04-19T03:28:59.918Z,14.10
2017-04-19T03:30:04.124Z,14.00
2017-04-19T03:31:07.997Z,14.00
2017-04-19T03:32:12.051Z,14.00
2017-04-19T03:33:15.961Z,14.10
2017-04-19T03:34:19.885Z,14.10
2017-04-19T03:35:23.683Z,14.20
2017-04-19T03:36:27.771Z,14.20
2017-04-19T03:37:32.005Z,14.10
2017-04-19T03:38:35.920Z,14.10
2017-04-19T03:39:40.168Z,14.10
2017-04-19T03:40:44.281Z,14.00
2017-04-19T03:41:48.126Z,14.00
2017-04-19T03:42:52.054Z,13.90
2017-04-19T03:43:55.680Z,13.80
2017-04-19T03:45:00.218Z,13.70
2017-04-19T03:46:04.371Z,13.60
2017-04-19T03:47:08.120Z,13.50
2017-04-19T03:48:11.934Z,13.40
2017-04-19T03:49:15.667Z,13.40
2017-04-19T03:50:19.660Z,13.40
2017-04-19T03:51:23.816Z,13.40
2017-04-19T03:52:27.874Z,13.40
2017-04-19T03:53:32.005Z,13.30
2017-04-19T03:54:36.186Z,13.40
2017-04-19T03:55:39.819Z,13.30
2017-04-19T03:56:43.451Z,13.30
2017-04-19T03:57:48.520Z,13.20
2017-04-19T03:58:52.367Z,13.20
2017-04-19T03:59:56.114Z,13.10
2017-04-19T04:01:00.099Z,13.00
2017-04-19T04:02:03.963Z,13.00
2017-04-19T04:03:07.877Z,13.00
2017-04-19T04:04:12.312Z,13.00
2017-04-19T04:05:16.274Z,13.00
2017-04-19T04:06:20.064Z,13.00
2017-04-19T04:07:24.935Z,12.80
2017-04-19T04:08:29.725Z,12.70
2017-04-19T04:09:33.623Z,12.70
2017-04-19T04:10:37.614Z,12.70
2017-04-19T04:11:41.695Z,12.70
2017-04-19T04:12:45.573Z,12.70
2017-04-19T04:13:49.377Z,12.60
2017-04-19T04:14:53.064Z,12.70
2017-04-19T04:15:57.045Z,12.60
2017-04-19T04:17:00.720Z,12.70
2017-04-19T04:18:04.736Z,12.70
2017-04-19T04:19:08.592Z,12.70
2017-04-19T04:20:12.535Z,12.70
2017-04-19T04:21:16.960Z,12.60
2017-04-19T04:22:20.841Z,12.60
2017-04-19T04:23:24.614Z,12.60
2017-04-19T04:24:28.640Z,12.60
2017-04-19T04:25:33.293Z,12.60
2017-04-19T04:26:37.009Z,12.60
2017-04-19T04:27:40.949Z,12.60
2017-04-19T04:28:44.880Z,12.60
2017-04-19T04:29:48.674Z,12.60
2017-04-19T04:30:52.600Z,12.50
2017-04-19T04:31:56.428Z,12.40
2017-04-19T04:33:00.495Z,12.30
2017-04-19T04:34:04.043Z,12.30
2017-04-19T04:35:07.764Z,12.20
2017-04-19T04:36:11.904Z,12.20
2017-04-19T04:37:16.300Z,12.20
2017-04-19T04:38:20.143Z,12.20
2017-04-19T04:39:23.978Z,12.20
2017-04-19T04:40:27.919Z,12.20
2017-04-19T04:41:31.842Z,12.10
2017-04-19T04:42:36.269Z,12.10
2017-04-19T04:43:42.255Z,11.90
2017-04-19T04:44:45.906Z,11.80
2017-04-19T04:45:49.775Z,11.80
2017-04-19T04:46:53.753Z,11.80
2017-04-19T04:47:57.878Z,11.70
2017-04-19T04:49:01.626Z,11.70
2017-04-19T04:50:05.355Z,11.70
2017-04-19T04:51:09.428Z,11.60
2017-04-19T04:52:13.404Z,11.50
2017-04-19T04:53:17.114Z,11.40
2017-04-19T04:54:21.167Z,11.30
2017-04-19T04:55:26.122Z,11.20
2017-04-19T04:56:29.461Z,11.20
2017-04-19T04:57:33.498Z,11.20
2017-04-19T04:58:37.241Z,11.20
2017-04-19T04:59:40.948Z,11.20
2017-04-19T05:00:44.774Z,11.10
2017-04-19T05:01:48.521Z,11.10
2017-04-19T05:02:52.517Z,11.10
2017-04-19T05:03:56.246Z,11.10
2017-04-19T05:04:59.783Z,11.10
2017-04-19T05:06:03.681Z,11.10
2017-04-19T05:07:07.461Z,11.10
2017-04-19T05:08:11.596Z,11.10
2017-04-19T05:09:15.452Z,11.20
2017-04-19T05:10:20.160Z,11.20
2017-04-19T05:11:24.044Z,11.20
2017-04-19T05:12:28.000Z,11.30
2017-04-19T05:13:32.155Z,11.30
2017-04-19T05:14:35.801Z,11.40
2017-04-19T05:15:39.580Z,11.50
2017-04-19T05:16:43.568Z,11.50
2017-04-19T05:17:47.113Z,11.50
2017-04-19T05:18:50.898Z,11.50
2017-04-19T05:19:54.717Z,11.60
2017-04-19T05:20:58.574Z,11.70
2017-04-19T05:22:02.284Z,11.70
2017-04-19T05:23:06.225Z,11.60
2017-04-19T05:24:10.317Z,11.70
2017-04-19T05:25:15.344Z,11.70
2017-04-19T05:26:19.806Z,11.90
2017-04-19T05:27:23.390Z,11.90
2017-04-19T05:28:27.065Z,11.80
2017-04-19T05:29:31.199Z,11.80
2017-04-19T05:30:35.095Z,11.90
2017-04-19T05:31:38.866Z,11.80
2017-04-19T05:32:43.909Z,11.70
2017-04-19T05:33:48.169Z,11.80
2017-04-19T05:34:57.146Z,11.70
2017-04-19T05:36:01.267Z,11.70
2017-04-19T05:37:05.860Z,11.70
2017-04-19T05:38:12.204Z,11.80
2017-04-19T05:39:16.028Z,11.80
2017-04-19T05:40:20.080Z,11.80
2017-04-19T05:41:23.305Z,11.80
2017-04-19T05:42:26.979Z,11.80
2017-04-19T05:43:30.704Z,11.70
2017-04-19T05:44:34.518Z,11.60
2017-04-19T05:45:38.492Z,11.60
2017-04-19T05:46:42.405Z,11.50
2017-04-19T05:47:45.994Z,11.50
2017-04-19T05:48:49.684Z,11.50
2017-04-19T05:49:53.431Z,11.60
2017-04-19T05:50:57.112Z,11.70
2017-04-19T05:52:01.339Z,11.70
2017-04-19T05:53:05.275Z,11.80
2017-04-19T05:54:08.454Z,11.80
2017-04-19T05:55:11.612Z,11.90
2017-04-19T05:56:14.911Z,12.00
2017-04-19T05:57:18.077Z,12.00
2017-04-19T05:58:21.238Z,12.00
2017-04-19T05:59:24.468Z,12.10
2017-04-19T06:00:28.422Z,12.00
2017-04-19T06:01:31.654Z,12.00
2017-04-19T06:02:36.517Z,12.00
2017-04-19T06:03:39.829Z,12.00
2017-04-19T06:04:45.921Z,12.00
2017-04-19T06:05:49.980Z,12.00
2017-04-19T06:06:53.493Z,12.00
2017-04-19T06:07:56.843Z,11.90
2017-04-19T06:09:00.457Z,12.00
2017-04-19T06:10:04.402Z,12.00
2017-04-19T06:11:08.754Z,11.90
2017-04-19T06:12:13.419Z,11.80
2017-04-19T06:13:17.750Z,11.80
2017-04-19T06:14:21.854Z,11.70
2017-04-19T06:15:25.693Z,11.70
2017-04-19T06:16:30.165Z,11.60
2017-04-19T06:17:34.287Z,11.60
2017-04-19T06:18:38.291Z,11.60
2017-04-19T06:19:42.119Z,11.50
2017-04-19T06:20:46.296Z,11.60
2017-04-19T06:21:50.454Z,11.50
2017-04-19T06:22:54.530Z,11.50
2017-04-19T06:23:59.331Z,11.50
2017-04-19T06:25:03.287Z,11.50
2017-04-19T06:26:07.110Z,11.50
2017-04-19T06:27:10.737Z,11.60
2017-04-19T06:28:14.681Z,11.60
2017-04-19T06:29:18.068Z,11.60
2017-04-19T06:30:21.865Z,11.60
2017-04-19T06:31:25.786Z,11.50
2017-04-19T06:32:29.609Z,11.60
2017-04-19T06:33:33.380Z,11.60
2017-04-19T06:34:37.479Z,11.50
2017-04-19T06:35:41.264Z,11.60
2017-04-19T06:36:44.937Z,11.60
2017-04-19T06:37:48.766Z,11.60
2017-04-19T06:38:53.697Z,11.60
2017-04-19T06:39:57.517Z,11.60
2017-04-19T06:41:01.506Z,11.60
2017-04-19T06:42:04.995Z,11.60
2017-04-19T06:43:10.022Z,11.70
2017-04-19T06:44:14.020Z,11.70
2017-04-19T06:45:18.189Z,11.70
2017-04-19T06:46:22.120Z,11.70
2017-04-19T06:47:25.888Z,11.70
2017-04-19T06:48:29.555Z,11.70
2017-04-19T06:49:33.568Z,11.70
2017-04-19T06:50:37.602Z,11.80
2017-04-19T06:51:42.147Z,11.90
2017-04-19T06:52:45.882Z,11.80
2017-04-19T06:53:49.424Z,11.90
2017-04-19T06:54:54.004Z,11.80
2017-04-19T06:55:57.860Z,11.80
2017-04-19T06:57:02.577Z,11.80
2017-04-19T06:58:06.693Z,11.80
2017-04-19T06:59:10.450Z,11.60
2017-04-19T07:00:14.173Z,11.50
2017-04-19T07:01:17.939Z,11.50
2017-04-19T07:02:21.524Z,11.60
2017-04-19T07:03:25.645Z,11.50
2017-04-19T07:04:29.501Z,11.40
2017-04-19T07:05:33.687Z,11.30
2017-04-19T07:06:37.926Z,11.30
2017-04-19T07:07:41.958Z,11.20
2017-04-19T07:08:45.971Z,11.20
2017-04-19T07:09:50.711Z,11.20
2017-04-19T07:10:54.919Z,11.20
2017-04-19T07:11:59.903Z,11.20
2017-04-19T07:13:03.737Z,11.20
2017-04-19T07:14:07.999Z,11.20
2017-04-19T07:15:12.318Z,11.20
2017-04-19T07:16:16.393Z,11.10
2017-04-19T07:17:20.339Z,11.10
2017-04-19T07:18:24.547Z,11.00
2017-04-19T07:19:28.596Z,11.00
2017-04-19T07:20:32.972Z,11.00
2017-04-19T07:21:37.138Z,11.00
2017-04-19T07:22:41.483Z,11.00
2017-04-19T07:23:45.426Z,10.90
2017-04-19T07:24:49.677Z,10.90
2017-04-19T07:25:53.870Z,10.90
2017-04-19T07:26:57.906Z,10.90
2017-04-19T07:28:01.770Z,10.90
2017-04-19T07:29:05.857Z,10.90
2017-04-19T07:30:10.013Z,10.90
2017-04-19T07:31:14.364Z,10.90
2017-04-19T07:32:18.572Z,10.80
2017-04-19T07:33:22.532Z,10.80
2017-04-19T07:34:26.637Z,10.80
2017-04-19T07:35:30.821Z,10.70
2017-04-19T07:36:34.795Z,10.70
2017-04-19T07:37:38.871Z,10.70
2017-04-19T07:38:42.652Z,10.70
2017-04-19T07:39:47.942Z,10.70
2017-04-19T07:40:52.334Z,10.70
2017-04-19T07:41:56.175Z,10.70
2017-04-19T07:43:00.407Z,10.70
2017-04-19T07:44:04.294Z,10.70
2017-04-19T07:45:08.644Z,10.70
2017-04-19T07:46:12.872Z,10.70
2017-04-19T07:47:17.151Z,10.70
2017-04-19T07:48:21.457Z,10.70
2017-04-19T07:49:25.497Z,10.70
2017-04-19T07:50:29.649Z,10.60
2017-04-19T07:51:33.908Z,10.60
2017-04-19T07:52:38.267Z,10.70
2017-04-19T07:53:42.293Z,10.70
2017-04-19T07:54:46.432Z,10.70
2017-04-19T07:55:50.544Z,10.70
2017-04-19T07:56:54.886Z,10.60
2017-04-19T07:57:58.691Z,10.70
2017-04-19T07:59:02.474Z,10.70
2017-04-19T08:00:07.601Z,10.70
2017-04-19T08:01:12.462Z,10.70
2017-04-19T08:02:16.828Z,10.70
2017-04-19T08:03:21.189Z,10.70
2017-04-19T08:04:25.983Z,10.60
2017-04-19T08:05:30.096Z,10.70
2017-04-19T08:06:34.289Z,10.70
2017-04-19T08:07:38.470Z,10.70
2017-04-19T08:08:42.472Z,10.70
2017-04-19T08:09:46.371Z,10.80
2017-04-19T08:10:50.505Z,10.80
2017-04-19T08:11:54.646Z,10.70
2017-04-19T08:12:59.066Z,10.60
2017-04-19T08:14:02.990Z,10.50
2017-04-19T08:15:07.101Z,10.40
2017-04-19T08:16:11.155Z,10.40
2017-04-19T08:17:15.289Z,10.40
2017-04-19T08:18:19.411Z,10.30
2017-04-19T08:19:23.691Z,10.40
2017-04-19T08:20:27.740Z,10.40
2017-04-19T08:21:32.081Z,10.30
2017-04-19T08:22:36.332Z,10.30
2017-04-19T08:23:40.404Z,10.30
2017-04-19T08:24:44.717Z,10.20
2017-04-19T08:25:48.872Z,10.20
2017-04-19T08:26:52.772Z,10.30
2017-04-19T08:27:56.697Z,10.30
2017-04-19T08:29:01.280Z,10.30
2017-04-19T08:30:05.130Z,10.30
2017-04-19T08:31:09.199Z,10.30
2017-04-19T08:32:13.184Z,10.20
2017-04-19T08:33:17.253Z,10.20
2017-04-19T08:34:21.445Z,10.20
2017-04-19T08:35:25.317Z,10.10
2017-04-19T08:36:30.065Z,10.10
2017-04-19T08:37:34.131Z,10.10
2017-04-19T08:38:38.190Z,10.10
2017-04-19T08:39:42.532Z,10.20
2017-04-19T08:40:48.048Z,10.20
2017-04-19T08:41:52.263Z,10.20
2017-04-19T08:42:56.205Z,10.20
2017-04-19T08:44:00.154Z,10.20
2017-04-19T08:45:04.509Z,10.10
2017-04-19T08:46:08.476Z,10.10
2017-04-19T08:47:12.547Z,10.10
2017-04-19T08:48:16.580Z,10.10
2017-04-19T08:49:21.408Z,10.10
2017-04-19T08:50:25.468Z,10.10
2017-04-19T08:51:29.781Z,10.10
2017-04-19T08:52:33.952Z,10.10
2017-04-19T08:53:38.310Z,10.10
2017-04-19T08:54:42.243Z,10.10
2017-04-19T08:55:46.094Z,10.10
2017-04-19T08:56:49.875Z,10.10
2017-04-19T08:57:54.000Z,10.10
2017-04-19T08:58:58.176Z,10.20
2017-04-19T09:00:02.158Z,10.20
2017-04-19T09:01:05.931Z,10.10
2017-04-19T09:02:10.165Z,10.10
2017-04-19T09:03:14.246Z,10.00
2017-04-19T09:04:18.239Z,9.90
2017-04-19T09:05:22.280Z,9.80
2017-04-19T09:06:26.350Z,9.80
2017-04-19T09:07:30.471Z,9.70
2017-04-19T09:08:34.375Z,9.70
2017-04-19T09:09:38.323Z,9.60
2017-04-19T09:10:41.817Z,9.60
2017-04-19T09:11:45.916Z,9.60
2017-04-19T09:12:50.090Z,9.60
2017-04-19T09:13:54.316Z,9.60
2017-04-19T09:14:58.505Z,9.60
2017-04-19T09:16:02.722Z,9.60
2017-04-19T09:17:06.900Z,9.60
2017-04-19T09:18:11.171Z,9.60
2017-04-19T09:19:15.388Z,9.60
2017-04-19T09:20:19.404Z,9.60
2017-04-19T09:21:23.445Z,9.60
2017-04-19T09:22:27.432Z,9.60
2017-04-19T09:23:31.426Z,9.60
2017-04-19T09:24:35.285Z,9.60
2017-04-19T09:25:40.027Z,9.60
2017-04-19T09:26:44.317Z,9.60
2017-04-19T09:27:48.401Z,9.60
2017-04-19T09:28:52.357Z,9.50
2017-04-19T09:29:56.307Z,9.50
2017-04-19T09:31:01.113Z,9.40
2017-04-19T09:32:05.167Z,9.30
2017-04-19T09:33:09.488Z,9.40
2017-04-19T09:34:13.714Z,9.40
2017-04-19T09:35:17.642Z,9.50
2017-04-19T09:36:21.703Z,9.50
2017-04-19T09:37:25.784Z,9.60
2017-04-19T09:38:29.679Z,9.60
2017-04-19T09:39:33.914Z,9.70
2017-04-19T09:40:38.653Z,9.70
2017-04-19T09:41:42.685Z,9.70
2017-04-19T09:42:47.115Z,9.80
2017-04-19T09:43:51.047Z,9.80
2017-04-19T09:44:55.367Z,9.80
2017-04-19T09:45:59.661Z,9.80
2017-04-19T09:47:03.741Z,9.80
2017-04-19T09:48:08.066Z,9.90
2017-04-19T09:49:11.977Z,9.90
2017-04-19T09:50:15.787Z,9.90
2017-04-19T09:51:19.815Z,9.80
2017-04-19T09:52:24.027Z,9.70
2017-04-19T09:53:28.099Z,9.60
2017-04-19T09:54:32.052Z,9.60
2017-04-19T09:55:35.911Z,9.50
2017-04-19T09:56:40.259Z,9.60
2017-04-19T09:57:44.024Z,9.60
2017-04-19T09:58:48.198Z,9.60
2017-04-19T09:59:52.245Z,9.60
2017-04-19T10:00:56.432Z,9.60
2017-04-19T10:02:00.618Z,9.70
2017-04-19T10:03:04.523Z,9.70
2017-04-19T10:04:09.654Z,9.70
2017-04-19T10:05:13.752Z,9.70
2017-04-19T10:06:17.935Z,9.70
2017-04-19T10:07:21.769Z,9.60
2017-04-19T10:08:26.057Z,9.60
2017-04-19T10:09:29.993Z,9.60
2017-04-19T10:10:33.994Z,9.60
2017-04-19T10:11:38.005Z,9.60
2017-04-19T10:12:42.122Z,9.70
2017-04-19T10:13:46.187Z,9.70
2017-04-19T10:14:50.652Z,9.80
2017-04-19T10:15:54.932Z,9.70
2017-04-19T10:16:58.965Z,9.70
2017-04-19T10:18:02.967Z,9.70
2017-04-19T10:19:07.222Z,9.70
2017-04-19T10:20:11.227Z,9.60
2017-04-19T10:21:16.154Z,9.60
2017-04-19T10:22:20.170Z,9.70
2017-04-19T10:23:24.119Z,9.70
2017-04-19T10:24:28.293Z,9.70
2017-04-19T10:25:32.429Z,9.80
2017-04-19T10:26:36.336Z,9.70
2017-04-19T10:27:40.301Z,9.80
2017-04-19T10:28:44.418Z,9.80
2017-04-19T10:29:48.290Z,9.80
2017-04-19T10:30:52.538Z,9.80
2017-04-19T10:31:56.274Z,9.70
2017-04-19T10:33:00.939Z,9.60
2017-04-19T10:34:04.474Z,9.60
2017-04-19T10:35:07.924Z,9.70
2017-04-19T10:36:11.673Z,9.70
2017-04-19T10:37:15.397Z,9.70
2017-04-19T10:38:19.183Z,9.60
2017-04-19T10:39:23.118Z,9.70
2017-04-19T10:40:26.789Z,9.70
2017-04-19T10:41:32.843Z,9.70
2017-04-19T10:42:36.706Z,9.70
2017-04-19T10:43:40.178Z,9.70
2017-04-19T10:44:44.460Z,9.70
2017-04-19T10:45:48.187Z,9.70
2017-04-19T10:46:52.658Z,9.70
2017-04-19T10:47:56.253Z,9.80
2017-04-19T10:49:00.054Z,9.80
2017-04-19T10:50:04.070Z,9.80
2017-04-19T10:51:08.135Z,9.80
2017-04-19T10:52:11.996Z,9.90
2017-04-19T10:53:15.732Z,9.90
2017-04-19T10:54:19.741Z,9.90
2017-04-19T10:55:23.509Z,10.00
2017-04-19T10:56:27.487Z,10.00
2017-04-19T10:57:32.422Z,9.90
2017-04-19T10:58:36.331Z,10.00
2017-04-19T10:59:40.499Z,10.00
2017-04-19T11:00:44.443Z,10.00
2017-04-19T11:01:48.218Z,10.00
2017-04-19T11:02:52.029Z,10.10
2017-04-19T11:03:55.610Z,10.10
2017-04-19T11:04:59.434Z,10.20
2017-04-19T11:06:02.984Z,10.20
2017-04-19T11:07:06.877Z,10.20
2017-04-19T11:08:11.032Z,10.30
2017-04-19T11:09:15.089Z,10.30
2017-04-19T11:10:18.727Z,10.30
2017-04-19T11:11:22.588Z,10.40
2017-04-19T11:12:26.417Z,10.20
2017-04-19T11:13:30.273Z,10.10
2017-04-19T11:14:34.272Z,10.20
2017-04-19T11:15:38.188Z,10.10
2017-04-19T11:16:41.971Z,10.10
2017-04-19T11:17:45.945Z,10.20
2017-04-19T11:18:49.868Z,10.30
2017-04-19T11:19:53.957Z,10.30
2017-04-19T11:20:57.701Z,10.20
2017-04-19T11:22:01.730Z,10.10
2017-04-19T11:23:05.453Z,10.10
2017-04-19T11:24:09.355Z,10.10
2017-04-19T11:25:13.348Z,10.10
2017-04-19T11:26:17.133Z,10.10
2017-04-19T11:27:21.064Z,9.90
2017-04-19T11:28:24.681Z,9.80
2017-04-19T11:29:28.255Z,9.80
2017-04-19T11:30:32.134Z,9.70
2017-04-19T11:31:35.919Z,9.70
2017-04-19T11:32:40.011Z,9.60
2017-04-19T11:33:43.710Z,9.60
2017-04-19T11:34:47.601Z,9.60
2017-04-19T11:35:52.274Z,9.70
2017-04-19T11:36:56.318Z,9.70
2017-04-19T11:38:01.200Z,9.60
2017-04-19T11:39:05.373Z,9.60
2017-04-19T11:40:09.044Z,9.50
2017-04-19T11:41:13.769Z,9.60
2017-04-19T11:42:20.221Z,9.70
2017-04-19T11:43:24.006Z,9.70
2017-04-19T11:44:27.679Z,9.70
2017-04-19T11:45:31.656Z,9.60
2017-04-19T11:46:35.283Z,9.70
2017-04-19T11:47:39.725Z,9.70
2017-04-19T11:48:43.870Z,9.70
2017-04-19T11:49:48.233Z,9.80
2017-04-19T11:50:52.216Z,9.90
2017-04-19T11:51:56.403Z,9.90
2017-04-19T11:53:00.118Z,9.90
2017-04-19T11:54:04.023Z,9.80
2017-04-19T11:55:07.858Z,9.70
2017-04-19T11:56:11.764Z,9.60
2017-04-19T11:57:15.600Z,9.60
2017-04-19T11:58:19.688Z,9.60
2017-04-19T11:59:23.600Z,9.60
2017-04-19T12:00:27.381Z,9.50
2017-04-19T12:01:31.348Z,9.50
2017-04-19T12:02:35.443Z,9.50
2017-04-19T12:03:39.595Z,9.50
2017-04-19T12:04:43.832Z,9.40
2017-04-19T12:05:47.893Z,9.40
2017-04-19T12:06:51.551Z,9.30
2017-04-19T12:07:56.112Z,9.20
2017-04-19T12:09:00.272Z,9.20
2017-04-19T12:10:04.011Z,9.20
2017-04-19T12:11:07.932Z,9.10
2017-04-19T12:12:12.027Z,9.10
2017-04-19T12:13:15.789Z,9.10
2017-04-19T12:14:19.517Z,9.10
2017-04-19T12:15:23.612Z,9.10
2017-04-19T12:16:27.469Z,9.10
2017-04-19T12:17:31.172Z,9.10
2017-04-19T12:18:34.988Z,9.20
2017-04-19T12:19:38.785Z,9.20
2017-04-19T12:20:42.580Z,9.30
2017-04-19T12:21:46.345Z,9.30
2017-04-19T12:22:50.240Z,9.20
2017-04-19T12:23:53.882Z,9.30
2017-04-19T12:24:57.535Z,9.30
2017-04-19T12:26:01.026Z,9.30
2017-04-19T12:27:04.794Z,9.30
2017-04-19T12:28:08.693Z,9.30
2017-04-19T12:29:12.592Z,9.40
2017-04-19T12:30:16.181Z,9.30
2017-04-19T12:31:20.281Z,9.20
2017-04-19T12:32:23.941Z,9.30
2017-04-19T12:33:28.011Z,9.30
2017-04-19T12:34:32.457Z,9.30
2017-04-19T12:35:36.411Z,9.10
2017-04-19T12:36:40.056Z,9.00
2017-04-19T12:37:43.902Z,9.00
2017-04-19T12:38:47.860Z,9.10
2017-04-19T12:39:51.703Z,9.10
2017-04-19T12:40:55.579Z,9.10
2017-04-19T12:41:59.259Z,9.00
2017-04-19T12:43:04.104Z,9.00
2017-04-19T12:44:08.111Z,9.00
2017-04-19T12:45:12.513Z,8.90
2017-04-19T12:46:16.588Z,9.00
2017-04-19T12:47:20.471Z,9.00
2017-04-19T12:48:24.279Z,9.00
2017-04-19T12:49:28.221Z,8.90
2017-04-19T12:50:31.943Z,9.00
2017-04-19T12:51:35.786Z,9.00
2017-04-19T12:52:39.802Z,9.00
2017-04-19T12:53:43.712Z,9.00
2017-04-19T12:54:47.443Z,9.10
2017-04-19T12:55:50.942Z,9.10
2017-04-19T12:56:54.676Z,9.20
2017-04-19T12:57:58.476Z,9.30
2017-04-19T12:59:02.420Z,9.30
2017-04-19T13:00:06.230Z,9.20
2017-04-19T13:01:10.119Z,9.30
2017-04-19T13:02:14.141Z,9.30
2017-04-19T13:03:17.909Z,9.40
2017-04-19T13:04:22.205Z,9.30
2017-04-19T13:05:25.843Z,9.30
2017-04-19T13:06:29.747Z,9.30
2017-04-19T13:07:33.342Z,9.20
2017-04-19T13:08:37.152Z,9.20
2017-04-19T13:09:40.849Z,9.20
2017-04-19T13:10:44.864Z,9.30
2017-04-19T13:11:48.850Z,9.30
2017-04-19T13:12:52.831Z,9.40
2017-04-19T13:13:56.674Z,9.40
2017-04-19T13:15:00.458Z,9.40
2017-04-19T13:16:04.506Z,9.40
2017-04-19T13:17:08.464Z,9.40
2017-04-19T13:18:12.278Z,9.40
2017-04-19T13:19:17.114Z,9.30
2017-04-19T13:20:20.709Z,9.40
2017-04-19T13:21:24.663Z,9.40
2017-04-19T13:22:29.512Z,9.40
2017-04-19T13:23:33.402Z,9.50
2017-04-19T13:24:37.177Z,9.50
2017-04-19T13:25:41.182Z,9.60
2017-04-19T13:26:45.057Z,9.60
2017-04-19T13:27:48.772Z,9.60
2017-04-19T13:28:52.228Z,9.60
2017-04-19T13:29:55.886Z,9.70
2017-04-19T13:30:59.453Z,9.80
2017-04-19T13:32:04.536Z,9.70
2017-04-19T13:33:08.493Z,9.80
2017-04-19T13:34:12.477Z,9.80
2017-04-19T13:35:17.151Z,9.80
2017-04-19T13:36:20.748Z,9.80
2017-04-19T13:37:24.750Z,9.80
2017-04-19T13:38:28.326Z,9.80
2017-04-19T13:39:32.120Z,9.80
2017-04-19T13:40:36.188Z,9.80
2017-04-19T13:41:39.824Z,9.80
2017-04-19T13:42:43.970Z,9.90
2017-04-19T13:43:49.342Z,9.80
2017-04-19T13:44:53.005Z,9.80
2017-04-19T13:45:56.520Z,9.80
2017-04-19T13:47:00.009Z,9.80
2017-04-19T13:48:03.953Z,9.80
2017-04-19T13:49:07.954Z,9.70
2017-04-19T13:50:11.753Z,9.80
2017-04-19T13:51:15.745Z,9.80
2017-04-19T13:52:19.393Z,9.80
2017-04-19T13:53:23.955Z,9.80
2017-04-19T13:54:28.118Z,9.80
2017-04-19T13:55:31.925Z,9.80
2017-04-19T13:56:35.883Z,9.80
2017-04-19T13:57:39.848Z,9.80